Time;durP1;ratioP1;P1;durP2;ratioP2;P2;SDS_P1;SDS_P2;PMS_P1;PMS_P2;Temp;Humidity;BMP_temperature;BMP_pressure;BME280_temperature;BME280_humidity;BME280_pressure;Samples;Min_cycle;Max_cycle;Signal;HPM_P1;HPM_P2
2022/04/05 00:00:05;;;;;;;7.63;5.35;;;-0.20;99.90;;;;;;4972313;28;20039;-59
2022/04/05 00:02:31;;;;;;;7.38;4.10;;;-0.20;99.90;;;;;;4971873;28;20165;-59
2022/04/05 00:04:56;;;;;;;5.85;3.80;;;-0.30;99.90;;;;;;4972436;28;20654;-59
2022/04/05 00:07:23;;;;;;;6.75;3.63;;;-0.30;99.90;;;;;;4972209;28;20098;-59
2022/04/05 00:09:49;;;;;;;10.65;8.63;;;-0.30;99.90;;;;;;4971850;28;20396;-59
2022/04/05 00:12:15;;;;;;;14.48;11.25;;;-0.40;99.90;;;;;;4971958;28;20023;-60
2022/04/05 00:14:41;;;;;;;34.70;26.80;;;-0.30;99.90;;;;;;4971887;28;20484;-59
2022/04/05 00:17:06;;;;;;;17.35;13.55;;;-0.30;99.90;;;;;;4971958;28;20480;-59
2022/04/05 00:19:32;;;;;;;10.85;7.13;;;-0.30;99.90;;;;;;4972590;28;20085;-59
2022/04/05 00:21:58;;;;;;;9.60;6.90;;;-0.40;99.90;;;;;;4971841;28;20046;-59
2022/04/05 00:24:24;;;;;;;7.47;6.45;;;-0.30;99.90;;;;;;4971707;28;20030;-59
2022/04/05 00:26:49;;;;;;;21.65;18.17;;;-0.30;99.90;;;;;;4972302;28;20061;-59
2022/04/05 00:29:15;;;;;;;14.07;10.35;;;-0.30;99.90;;;;;;4971972;28;20476;-59
2022/04/05 00:31:41;;;;;;;17.83;15.40;;;-0.30;99.90;;;;;;4972008;28;20065;-59
2022/04/05 00:34:06;;;;;;;17.33;13.50;;;-0.40;99.90;;;;;;4971504;28;20057;-58
2022/04/05 00:36:32;;;;;;;14.20;10.98;;;-0.50;99.90;;;;;;4971552;28;20093;-59
2022/04/05 00:38:58;;;;;;;8.57;6.03;;;-0.60;99.90;;;;;;4972197;28;20027;-59
2022/04/05 00:41:23;;;;;;;8.35;6.00;;;-0.50;99.90;;;;;;4971501;28;20031;-59
2022/04/05 00:43:49;;;;;;;8.93;6.20;;;-0.60;99.90;;;;;;4973973;28;20019;-59
2022/04/05 00:46:15;;;;;;;9.63;6.35;;;-0.50;99.90;;;;;;4975858;28;20034;-58
2022/04/05 00:48:55;;;;;;;15.95;9.00;;;-0.60;99.90;;;;;;4974716;28;20022;-59
2022/04/05 00:51:23;;;;;;;19.77;11.88;;;-0.50;99.90;;;;;;4974852;28;20035;-59
2022/04/05 00:54:09;;;;;;;21.38;12.82;;;-0.40;99.90;;;;;;4974877;28;20345;-59
2022/04/05 00:56:36;;;;;;;25.42;15.43;;;-0.40;99.90;;;;;;4974887;28;20071;-59
2022/04/05 00:59:03;;;;;;;26.05;15.50;;;-0.50;99.90;;;;;;4975006;28;20403;-59
2022/04/05 01:01:30;;;;;;;18.65;11.02;;;-0.60;99.90;;;;;;4975347;28;20039;-59
2022/04/05 01:03:56;;;;;;;16.15;8.75;;;-0.40;99.90;;;;;;4974336;28;20033;-59
2022/04/05 01:06:30;;;;;;;16.70;10.48;;;-0.10;99.90;;;;;;4974595;28;20161;-59
2022/04/05 01:08:57;;;;;;;9.60;6.28;;;-0.10;99.90;;;;;;4974598;28;20396;-59
2022/04/05 01:11:23;;;;;;;8.48;6.05;;;-0.30;99.90;;;;;;4974645;28;20034;-59
2022/04/05 01:13:49;;;;;;;7.72;5.40;;;-0.40;99.90;;;;;;4974800;28;20031;-59
2022/04/05 01:16:16;;;;;;;8.57;5.43;;;-0.20;99.90;;;;;;4974950;28;20023;-59
2022/04/05 01:18:41;;;;;;;6.78;5.15;;;-0.20;99.90;;;;;;4974073;28;20563;-59
2022/04/05 01:21:07;;;;;;;6.85;4.85;;;-0.40;99.90;;;;;;4974688;28;20026;-60
2022/04/05 01:23:33;;;;;;;6.97;4.60;;;-0.50;99.90;;;;;;4974543;28;20031;-59
2022/04/05 01:26:00;;;;;;;7.55;4.47;;;-0.70;99.90;;;;;;4974446;28;20115;-60
2022/04/05 01:28:26;;;;;;;7.25;5.10;;;-0.80;99.90;;;;;;4974838;28;20027;-59
2022/04/05 01:30:52;;;;;;;6.93;4.90;;;-0.90;99.90;;;;;;4974585;28;20027;-59
2022/04/05 01:33:19;;;;;;;7.95;4.80;;;-0.70;99.90;;;;;;4973992;28;20069;-59
2022/04/05 01:35:45;;;;;;;5.95;4.30;;;-0.40;99.90;;;;;;4972678;28;20583;-59
2022/04/05 01:38:12;;;;;;;9.27;4.95;;;-0.40;99.90;;;;;;4972929;28;20055;-59
2022/04/05 01:40:38;;;;;;;7.80;5.13;;;-0.50;99.90;;;;;;4974850;28;20029;-59
2022/04/05 01:43:05;;;;;;;33.58;30.55;;;-0.60;99.90;;;;;;4974312;28;20030;-59
2022/04/05 01:45:30;;;;;;;11.45;10.35;;;-0.50;99.90;;;;;;4973879;28;20110;-59
2022/04/05 01:47:56;;;;;;;6.15;4.93;;;-0.60;99.90;;;;;;4972528;28;20141;-59
2022/04/05 01:50:22;;;;;;;8.10;5.63;;;-0.60;99.90;;;;;;4974466;28;20038;-60
2022/04/05 01:52:48;;;;;;;7.80;5.45;;;-0.70;99.90;;;;;;4974151;28;20031;-59
2022/04/05 01:55:14;;;;;;;8.65;5.82;;;-0.70;99.90;;;;;;4972991;28;20110;-59
2022/04/05 01:57:40;;;;;;;7.38;5.65;;;-0.60;99.90;;;;;;4973791;28;20019;-60
2022/04/05 02:00:14;;;;;;;6.63;5.20;;;-1.00;99.90;;;;;;4973891;28;20422;-59
2022/04/05 02:02:41;;;;;;;6.28;5.22;;;-1.20;99.90;;;;;;4973376;28;20035;-59
2022/04/05 02:05:07;;;;;;;12.48;5.80;;;-1.30;99.90;;;;;;4958424;28;20404;-58
2022/04/05 02:07:33;;;;;;;7.68;5.30;;;-1.00;99.90;;;;;;4974543;28;20118;-59
2022/04/05 02:09:58;;;;;;;8.30;5.47;;;-1.10;99.90;;;;;;4973456;28;20551;-59
2022/04/05 02:12:24;;;;;;;9.38;6.10;;;-1.30;99.90;;;;;;4973502;28;20376;-59
2022/04/05 02:14:50;;;;;;;8.88;5.88;;;-1.20;99.90;;;;;;4973281;28;20412;-59
2022/04/05 02:17:16;;;;;;;7.80;5.50;;;-0.90;99.90;;;;;;4973489;28;20395;-59
2022/04/05 02:19:43;;;;;;;9.73;5.20;;;-0.80;99.90;;;;;;4973704;28;20035;-59
2022/04/05 02:22:09;;;;;;;6.95;5.50;;;-0.90;99.90;;;;;;4972677;28;20499;-59
2022/04/05 02:24:35;;;;;;;6.57;5.70;;;-1.10;99.90;;;;;;4973540;28;20027;-59
2022/04/05 02:27:01;;;;;;;6.68;5.53;;;-1.10;99.90;;;;;;4972760;28;20027;-59
2022/04/05 02:29:26;;;;;;;7.65;6.07;;;-1.10;99.90;;;;;;4973109;28;20027;-59
2022/04/05 02:31:52;;;;;;;6.97;5.97;;;-1.20;99.90;;;;;;4973674;28;20024;-59
2022/04/05 02:34:18;;;;;;;8.30;6.65;;;-1.10;99.90;;;;;;4971421;28;20074;-59
2022/04/05 02:36:43;;;;;;;7.13;6.13;;;-1.10;99.90;;;;;;4973001;28;20081;-59
2022/04/05 02:39:11;;;;;;;7.95;6.30;;;-1.00;99.90;;;;;;4973015;28;20053;-58
2022/04/05 02:41:37;;;;;;;9.15;5.88;;;-1.00;99.90;;;;;;4973128;28;20065;-59
2022/04/05 02:44:03;;;;;;;7.50;6.63;;;-1.10;99.90;;;;;;4972850;28;20433;-59
2022/04/05 02:46:28;;;;;;;9.60;6.75;;;-1.10;99.90;;;;;;4973176;28;20038;-59
2022/04/05 02:48:55;;;;;;;8.50;6.20;;;-1.10;99.90;;;;;;4972807;28;20030;-58
2022/04/05 02:51:22;;;;;;;8.93;6.93;;;-1.10;99.90;;;;;;4973183;28;20023;-59
2022/04/05 02:53:48;;;;;;;9.77;7.18;;;-1.10;99.90;;;;;;4972754;28;20031;-59
2022/04/05 02:56:15;;;;;;;9.32;7.47;;;-1.10;99.90;;;;;;4972945;28;20026;-58
2022/04/05 02:58:41;;;;;;;9.75;7.88;;;-1.10;99.90;;;;;;4972837;28;20050;-59
2022/04/05 03:01:07;;;;;;;8.98;7.05;;;-1.20;99.90;;;;;;4972984;28;20128;-59
2022/04/05 03:03:33;;;;;;;7.72;6.93;;;-1.10;99.90;;;;;;4972436;28;20041;-59
2022/04/05 03:05:59;;;;;;;9.13;7.15;;;-1.30;99.90;;;;;;4972548;28;20027;-58
2022/04/05 03:08:25;;;;;;;8.65;7.68;;;-1.40;99.90;;;;;;4972296;28;20035;-59
2022/04/05 03:10:52;;;;;;;11.60;8.05;;;-1.20;99.90;;;;;;4972717;28;20033;-59
2022/04/05 03:13:19;;;;;;;10.15;8.80;;;-1.10;99.90;;;;;;4971384;28;20033;-59
2022/04/05 03:15:44;;;;;;;14.70;11.00;;;-1.10;99.90;;;;;;4972091;28;20027;-59
2022/04/05 03:18:10;;;;;;;18.48;11.10;;;-1.10;99.90;;;;;;4972501;28;20571;-59
2022/04/05 03:20:36;;;;;;;19.98;12.80;;;-1.10;99.90;;;;;;4972717;28;20542;-58
2022/04/05 03:23:02;;;;;;;24.08;14.65;;;-1.20;99.90;;;;;;4972594;28;20029;-61
2022/04/05 03:25:28;;;;;;;21.67;13.40;;;-1.20;99.90;;;;;;4972606;28;20062;-59
2022/04/05 03:27:54;;;;;;;24.27;14.90;;;-1.40;99.90;;;;;;4972103;28;20030;-59
2022/04/05 03:30:21;;;;;;;30.83;16.08;;;-1.40;99.90;;;;;;4972078;28;20437;-59
2022/04/05 03:32:47;;;;;;;22.63;14.32;;;-1.60;99.90;;;;;;4972483;28;20035;-59
2022/04/05 03:35:14;;;;;;;18.95;12.98;;;-1.50;99.90;;;;;;4972070;28;20055;-59
2022/04/05 03:37:40;;;;;;;15.32;11.98;;;-1.40;99.90;;;;;;4972558;28;20027;-58
2022/04/05 03:40:07;;;;;;;13.55;10.70;;;-1.50;99.90;;;;;;4971784;28;20042;-59
2022/04/05 03:42:33;;;;;;;16.73;11.55;;;-1.60;99.90;;;;;;4972715;28;20035;-58
2022/04/05 03:44:59;;;;;;;16.30;11.57;;;-1.60;99.90;;;;;;4971009;28;20037;-58
2022/04/05 03:47:27;;;;;;;16.13;11.88;;;-1.50;99.90;;;;;;4972007;28;20035;-59
2022/04/05 03:49:53;;;;;;;17.50;11.70;;;-1.50;99.90;;;;;;4972266;28;20018;-59
2022/04/05 03:52:19;;;;;;;13.50;10.38;;;-1.60;99.90;;;;;;4972726;28;20130;-59
2022/04/05 03:54:45;;;;;;;10.85;9.70;;;-1.60;99.90;;;;;;4971768;28;20535;-59
2022/04/05 03:57:11;;;;;;;11.05;9.20;;;-1.50;99.90;;;;;;4971697;28;20027;-58
2022/04/05 03:59:37;;;;;;;12.50;10.13;;;-1.50;99.90;;;;;;4972108;28;20033;-59
2022/04/05 04:02:03;;;;;;;12.95;9.40;;;-1.60;99.90;;;;;;4972199;28;20038;-59
2022/04/05 04:04:29;;;;;;;11.60;9.10;;;-1.60;99.90;;;;;;4972689;28;20023;-58
2022/04/05 04:06:55;;;;;;;9.77;8.63;;;-1.50;99.90;;;;;;4972088;28;20119;-59
2022/04/05 04:09:20;;;;;;;9.02;8.07;;;-1.30;99.90;;;;;;4971834;28;20764;-59
2022/04/05 04:11:46;;;;;;;9.85;8.15;;;-1.40;99.90;;;;;;4971627;28;20030;-58
2022/04/05 04:14:12;;;;;;;11.32;9.10;;;-1.50;99.90;;;;;;4972029;28;20042;-58
2022/04/05 04:16:38;;;;;;;30.55;17.80;;;-1.50;99.90;;;;;;4972429;28;20377;-59
2022/04/05 04:19:04;;;;;;;37.25;21.33;;;-1.50;99.90;;;;;;4974901;28;20060;-59
2022/04/05 04:21:30;;;;;;;66.45;36.35;;;-1.50;99.90;;;;;;4975587;28;20030;-62
2022/04/05 04:23:56;;;;;;;63.38;38.30;;;-1.50;99.90;;;;;;4976002;28;20038;-58
2022/04/05 04:26:21;;;;;;;89.07;53.38;;;-1.50;99.90;;;;;;4975215;28;20548;-58
2022/04/05 04:28:51;;;;;;;90.85;55.90;;;-1.50;99.90;;;;;;4975848;28;20031;-58
2022/04/05 04:31:17;;;;;;;90.28;53.20;;;-1.40;99.90;;;;;;4974276;28;20027;-59
2022/04/05 04:33:42;;;;;;;74.65;44.15;;;-1.60;99.90;;;;;;4975789;28;20494;-58
2022/04/05 04:36:08;;;;;;;70.95;41.70;;;-1.50;99.90;;;;;;4975205;28;20162;-59
2022/04/05 04:38:34;;;;;;;74.30;49.30;;;-1.40;99.90;;;;;;4974671;28;20026;-59
2022/04/05 04:41:00;;;;;;;70.05;45.05;;;-1.40;99.90;;;;;;4974865;28;20045;-57
2022/04/05 04:43:27;;;;;;;65.43;45.75;;;-1.50;99.90;;;;;;4975666;28;20038;-58
2022/04/05 04:45:54;;;;;;;66.28;43.00;;;-1.50;99.90;;;;;;4975323;28;20057;-57
2022/04/05 04:48:21;;;;;;;65.88;44.60;;;-1.60;99.90;;;;;;4974859;28;20158;-59
2022/04/05 04:50:47;;;;;;;67.15;46.50;;;-1.60;99.90;;;;;;4974978;28;20097;-58
2022/04/05 04:53:13;;;;;;;45.40;35.50;;;-1.50;99.90;;;;;;4974984;28;20034;-57
2022/04/05 04:55:39;;;;;;;31.05;25.48;;;-1.40;99.90;;;;;;4975145;28;20023;-59
2022/04/05 04:58:05;;;;;;;28.50;22.58;;;-1.40;99.90;;;;;;4974755;28;20085;-58
2022/04/05 05:00:31;;;;;;;19.85;16.83;;;-1.50;99.90;;;;;;4974369;28;20258;-59
2022/04/05 05:02:57;;;;;;;30.48;24.55;;;-1.60;99.90;;;;;;4973766;28;20460;-59
2022/04/05 05:05:23;;;;;;;25.85;23.08;;;-1.60;99.90;;;;;;4974434;28;20026;-59
2022/04/05 05:07:51;;;;;;;21.77;17.60;;;-1.60;99.90;;;;;;4973559;28;20033;-59
2022/04/05 05:10:18;;;;;;;17.48;14.07;;;-1.60;99.90;;;;;;4973090;28;20019;-61
2022/04/05 05:12:44;;;;;;;11.85;9.05;;;-1.60;99.90;;;;;;4975035;28;20046;-59
2022/04/05 05:15:18;;;;;;;15.25;10.10;;;-1.60;99.90;;;;;;4974245;28;20027;-59
2022/04/05 05:17:45;;;;;;;14.40;10.00;;;-1.60;99.90;;;;;;4974793;28;20057;-59
2022/04/05 05:20:12;;;;;;;15.20;9.60;;;-1.70;99.90;;;;;;4974669;28;20039;-59
2022/04/05 05:22:39;;;;;;;11.30;7.50;;;-1.70;99.90;;;;;;4974822;28;20023;-58
2022/04/05 05:25:06;;;;;;;13.38;9.30;;;-1.70;99.90;;;;;;4974095;28;20023;-59
2022/04/05 05:27:32;;;;;;;14.80;10.10;;;-1.50;99.90;;;;;;4974830;28;20026;-59
2022/04/05 05:29:58;;;;;;;18.23;12.65;;;-1.50;99.90;;;;;;4974312;28;20514;-59
2022/04/05 05:32:24;;;;;;;11.50;9.32;;;-1.70;99.90;;;;;;4974535;28;20027;-59
2022/04/05 05:34:50;;;;;;;9.35;7.82;;;-1.80;99.90;;;;;;4974426;28;20093;-59
2022/04/05 05:37:15;;;;;;;12.35;7.20;;;-1.80;99.90;;;;;;4974616;28;20495;-59
2022/04/05 05:39:41;;;;;;;11.25;7.82;;;-1.80;99.90;;;;;;4974003;28;20031;-59
2022/04/05 05:42:07;;;;;;;11.60;7.47;;;-1.90;99.90;;;;;;4974381;28;20037;-59
2022/04/05 05:44:34;;;;;;;13.18;9.63;;;-1.90;99.90;;;;;;4974439;28;20030;-59
2022/04/05 05:47:03;;;;;;;11.70;10.45;;;-1.80;99.90;;;;;;4974674;28;20393;-58
2022/04/05 05:49:29;;;;;;;14.43;10.40;;;-1.80;99.90;;;;;;4974779;28;20424;-59
2022/04/05 05:51:55;;;;;;;13.18;8.70;;;-1.60;99.90;;;;;;4973936;28;20023;-59
2022/04/05 05:54:21;;;;;;;19.52;9.73;;;-1.50;99.90;;;;;;4973840;28;20037;-59
2022/04/05 05:56:46;;;;;;;25.60;13.90;;;-1.10;99.90;;;;;;4974048;28;20496;-59
2022/04/05 05:59:12;;;;;;;20.33;12.23;;;-0.90;99.90;;;;;;4974195;28;20101;-59
2022/04/05 06:01:38;;;;;;;21.10;11.70;;;-1.20;99.90;;;;;;4974149;28;20039;-59
2022/04/05 06:04:04;;;;;;;17.92;10.05;;;-1.20;99.90;;;;;;4974392;28;20107;-59
2022/04/05 06:06:30;;;;;;;10.07;8.13;;;-0.70;99.90;;;;;;4973856;28;20515;-59
2022/04/05 06:08:56;;;;;;;13.30;7.63;;;0.40;99.90;;;;;;4973559;28;20022;-59
2022/04/05 06:11:22;;;;;;;17.33;6.70;;;0.90;99.90;;;;;;4973892;28;20027;-59
2022/04/05 06:13:49;;;;;;;12.18;6.13;;;2.20;99.90;;;;;;4973921;28;20026;-59
2022/04/05 06:16:15;;;;;;;13.98;5.68;;;3.50;99.90;;;;;;4974140;28;20089;-60
2022/04/05 06:18:42;;;;;;;8.10;5.47;;;4.00;99.90;;;;;;4973579;28;20492;-60
2022/04/05 06:21:08;;;;;;;12.55;5.72;;;5.20;99.90;;;;;;4973258;28;20429;-59
2022/04/05 06:23:34;;;;;;;11.88;5.30;;;5.90;99.90;;;;;;4973679;28;20071;-59
2022/04/05 06:26:00;;;;;;;9.07;4.57;;;6.60;99.90;;;;;;4973496;28;20534;-59
2022/04/05 06:28:26;;;;;;;9.90;5.43;;;6.90;99.90;;;;;;4974030;28;20023;-60
2022/04/05 06:30:52;;;;;;;12.93;5.10;;;6.80;99.90;;;;;;4973319;28;20030;-60
2022/04/05 06:33:24;;;;;;;13.23;4.28;;;7.20;99.90;;;;;;4973156;28;20023;-60
2022/04/05 06:35:58;;;;;;;11.52;4.15;;;7.90;99.90;;;;;;4973041;28;20106;-60
2022/04/05 06:38:25;;;;;;;8.95;4.70;;;7.30;99.90;;;;;;4973028;28;20034;-59
2022/04/05 06:40:54;;;;;;;6.78;3.80;;;7.80;99.60;;;;;;4972695;28;20404;-61
2022/04/05 06:43:21;;;;;;;8.77;4.47;;;7.20;99.90;;;;;;4970589;28;20030;-60
2022/04/05 06:45:47;;;;;;;21.10;5.22;;;7.90;99.90;;;;;;4972902;28;20118;-60
2022/04/05 06:48:14;;;;;;;5.93;4.20;;;7.40;99.90;;;;;;4973071;28;20030;-60
2022/04/05 06:50:40;;;;;;;7.78;4.28;;;7.80;99.90;;;;;;4972733;28;20031;-60
2022/04/05 06:53:07;;;;;;;9.15;4.53;;;6.60;99.90;;;;;;4957661;28;20045;-59
2022/04/05 06:55:33;;;;;;;10.05;4.82;;;6.50;99.90;;;;;;4973551;28;20026;-60
2022/04/05 06:57:58;;;;;;;8.65;4.60;;;6.00;99.90;;;;;;4972766;28;20377;-60
2022/04/05 07:00:25;;;;;;;9.18;4.40;;;6.40;99.90;;;;;;4972771;28;20074;-61
2022/04/05 07:02:53;;;;;;;14.13;4.65;;;5.60;99.90;;;;;;4972886;28;20034;-61
2022/04/05 07:05:19;;;;;;;9.13;3.90;;;6.20;99.90;;;;;;4972818;28;20098;-60
2022/04/05 07:07:45;;;;;;;6.40;3.97;;;7.50;99.90;;;;;;4972597;28;20077;-60
2022/04/05 07:10:14;;;;;;;6.63;3.92;;;7.80;99.90;;;;;;4972967;28;20444;-61
2022/04/05 07:12:41;;;;;;;8.20;4.00;;;9.10;99.90;;;;;;4972264;28;20051;-60
2022/04/05 07:15:09;;;;;;;5.85;3.30;;;11.10;98.80;;;;;;4972681;28;20421;-60
2022/04/05 07:17:35;;;;;;;7.68;4.35;;;11.20;99.00;;;;;;4972188;28;20093;-60
2022/04/05 07:20:00;;;;;;;4.22;3.63;;;10.60;99.80;;;;;;4972549;28;20022;-60
2022/04/05 07:22:26;;;;;;;7.55;3.70;;;10.40;95.50;;;;;;4972355;28;20085;-60
2022/04/05 07:24:52;;;;;;;4.57;3.38;;;10.90;96.10;;;;;;4972916;28;20027;-60
2022/04/05 07:27:18;;;;;;;7.20;3.78;;;12.20;96.30;;;;;;4972283;28;20030;-61
2022/04/05 07:29:44;;;;;;;6.10;3.60;;;13.80;93.50;;;;;;4972219;28;20023;-61
2022/04/05 07:32:09;;;;;;;5.07;3.55;;;16.10;95.00;;;;;;4972551;28;20023;-61
2022/04/05 07:34:35;;;;;;;5.78;3.22;;;15.50;90.50;;;;;;4972369;28;20184;-60
2022/04/05 07:37:01;;;;;;;4.38;3.50;;;16.00;92.50;;;;;;4972783;28;20412;-61
2022/04/05 07:39:27;;;;;;;7.40;3.55;;;16.10;80.30;;;;;;4972259;28;20046;-61
2022/04/05 07:41:53;;;;;;;5.13;3.25;;;16.80;78.90;;;;;;4972167;28;20035;-61
2022/04/05 07:44:19;;;;;;;5.53;3.33;;;17.00;78.20;;;;;;4972286;28;20027;-61
2022/04/05 07:46:45;;;;;;;3.40;3.10;;;18.20;78.50;;;;;;4972658;28;20039;-60
2022/04/05 07:49:11;;;;;;;4.50;3.17;;;18.30;78.40;;;;;;4972391;28;20110;-61
2022/04/05 07:51:37;;;;;;;4.68;3.33;;;17.90;73.30;;;;;;4972390;28;20031;-61
2022/04/05 07:54:05;;;;;;;4.80;3.05;;;16.70;74.60;;;;;;4975995;28;20034;-61
2022/04/05 07:56:30;;;;;;;8.55;2.95;;;19.50;71.60;;;;;;4976020;28;20105;-61
2022/04/05 07:58:57;;;;;;;3.95;2.85;;;16.20;74.70;;;;;;4976131;28;20109;-61
2022/04/05 08:01:24;;;;;;;10.13;3.65;;;15.00;80.70;;;;;;4976299;28;20027;-61
2022/04/05 08:03:50;;;;;;;5.45;3.45;;;14.00;82.60;;;;;;4975332;28;20042;-61
2022/04/05 08:06:16;;;;;;;4.68;2.90;;;14.60;80.80;;;;;;4976301;28;20392;-61
2022/04/05 08:08:42;;;;;;;5.15;2.85;;;16.70;78.00;;;;;;4975807;28;20037;-60
2022/04/05 08:11:08;;;;;;;7.10;3.80;;;18.50;72.90;;;;;;4975898;28;20487;-60
2022/04/05 08:13:33;;;;;;;7.00;5.47;;;20.00;71.90;;;;;;4971886;28;20038;-60
2022/04/05 08:15:59;;;;;;;2.78;2.40;;;20.20;70.30;;;;;;4975547;28;20027;-60
2022/04/05 08:18:25;;;;;;;3.85;2.42;;;21.30;71.20;;;;;;4975092;28;20035;-60
2022/04/05 08:20:50;;;;;;;4.20;2.90;;;21.70;70.00;;;;;;4975985;28;20070;-60
2022/04/05 08:23:16;;;;;;;4.00;2.53;;;21.20;69.00;;;;;;4975697;28;20412;-61
2022/04/05 08:25:42;;;;;;;3.13;2.28;;;21.80;70.70;;;;;;4975537;28;20547;-60
2022/04/05 08:28:08;;;;;;;5.10;2.55;;;22.20;64.50;;;;;;4975776;28;20042;-60
2022/04/05 08:30:34;;;;;;;3.63;2.25;;;23.00;65.60;;;;;;4975717;28;20014;-60
2022/04/05 08:32:59;;;;;;;4.20;2.10;;;23.30;68.90;;;;;;4975059;28;20037;-60
2022/04/05 08:35:25;;;;;;;5.30;2.20;;;22.80;63.20;;;;;;4975091;28;20050;-60
2022/04/05 08:37:53;;;;;;;4.30;2.38;;;23.50;63.50;;;;;;4975587;28;20118;-60
2022/04/05 08:40:21;;;;;;;6.00;2.53;;;22.90;63.50;;;;;;4973718;28;20169;-61
2022/04/05 08:42:49;;;;;;;6.70;2.30;;;23.50;60.70;;;;;;4975640;28;20557;-60
2022/04/05 08:45:17;;;;;;;3.35;1.98;;;22.90;62.70;;;;;;4974868;28;20023;-61
2022/04/05 08:47:49;;;;;;;4.78;2.20;;;23.00;62.60;;;;;;4974836;28;20138;-61
2022/04/05 08:50:17;;;;;;;5.32;2.13;;;23.80;61.90;;;;;;4975049;28;20516;-61
2022/04/05 08:52:43;;;;;;;3.75;2.10;;;25.80;59.50;;;;;;4975419;28;20030;-61
2022/04/05 08:55:10;;;;;;;4.97;2.25;;;24.80;61.40;;;;;;4975379;28;20150;-61
2022/04/05 08:57:35;;;;;;;6.38;2.38;;;24.80;61.40;;;;;;4974876;28;20019;-60
2022/04/05 09:00:04;;;;;;;4.32;1.85;;;25.50;61.80;;;;;;4974762;28;20027;-61
2022/04/05 09:02:29;;;;;;;3.15;1.75;;;27.00;59.10;;;;;;4974413;28;20031;-61
2022/04/05 09:04:55;;;;;;;4.32;1.75;;;26.20;59.30;;;;;;4974520;28;20030;-61
2022/04/05 09:07:28;;;;;;;3.78;2.00;;;25.30;60.60;;;;;;4975292;28;20027;-61
2022/04/05 09:10:15;;;;;;;4.15;1.80;;;25.20;76.30;;;;;;4974669;28;20073;-61
2022/04/05 09:12:49;;;;;;;3.35;1.85;;;26.50;87.20;;;;;;4974526;28;20050;-61
2022/04/05 09:15:24;;;;;;;4.15;1.95;;;26.70;68.40;;;;;;4974736;28;20022;-61
2022/04/05 09:17:50;;;;;;;5.88;2.17;;;26.80;79.10;;;;;;4974000;28;20058;-61
2022/04/05 09:20:18;;;;;;;3.38;2.30;;;27.00;59.40;;;;;;4974644;28;20062;-61
2022/04/05 09:22:44;;;;;;;3.42;1.80;;;26.70;56.60;;;;;;4974595;28;20388;-61
2022/04/05 09:25:15;;;;;;;5.78;2.00;;;22.80;62.80;;;;;;4973853;28;20023;-61
2022/04/05 09:27:57;;;;;;;4.20;1.63;;;23.60;61.70;;;;;;4974536;28;20381;-61
2022/04/05 09:30:28;;;;;;;3.13;1.65;;;24.30;62.50;;;;;;4974312;28;20027;-61
2022/04/05 09:32:56;;;;;;;4.13;2.05;;;24.90;61.50;;;;;;4973803;28;20097;-61
2022/04/05 09:35:30;;;;;;;4.07;1.80;;;25.60;58.40;;;;;;4974002;28;20070;-61
2022/04/05 09:38:12;;;;;;;3.60;1.80;;;21.70;64.10;;;;;;4974287;28;20074;-61
2022/04/05 09:40:38;;;;;;;3.20;1.90;;;21.70;64.10;;;;;;4970819;28;20030;-60
2022/04/05 09:43:08;;;;;;;3.97;1.83;;;22.40;64.30;;;;;;4974160;28;20035;-61
2022/04/05 09:46:00;;;;;;;3.78;2.03;;;22.40;65.30;;;;;;4973948;28;20101;-61
2022/04/05 09:48:28;;;;;;;6.45;1.90;;;23.10;62.30;;;;;;4973794;28;20063;-61
2022/04/05 09:51:06;;;;;;;5.05;1.95;;;20.80;66.20;;;;;;4973818;28;20126;-61
2022/04/05 09:53:47;;;;;;;3.45;2.33;;;20.50;65.50;;;;;;4973646;28;20495;-61
2022/04/05 09:56:29;;;;;;;4.85;2.08;;;18.20;70.40;;;;;;4959218;28;20077;-61
2022/04/05 09:59:02;;;;;;;4.82;1.88;;;18.00;72.70;;;;;;4973711;28;20049;-61
2022/04/05 10:01:29;;;;;;;4.32;1.88;;;20.30;66.90;;;;;;4973872;28;20031;-61
2022/04/05 10:04:03;;;;;;;3.22;2.00;;;21.80;65.10;;;;;;4973634;28;20062;-61
2022/04/05 10:06:32;;;;;;;3.67;1.98;;;23.40;63.60;;;;;;4972344;28;20488;-61
2022/04/05 10:09:00;;;;;;;3.22;2.00;;;21.70;65.00;;;;;;4973148;28;20097;-61
2022/04/05 10:11:30;;;;;;;4.80;1.80;;;20.10;68.00;;;;;;4973752;28;20117;-62
2022/04/05 10:13:57;;;;;;;6.82;1.90;;;20.40;67.90;;;;;;4972957;28;20015;-62
2022/04/05 10:16:25;;;;;;;2.42;1.52;;;21.20;65.50;;;;;;4972397;28;20149;-61
2022/04/05 10:18:55;;;;;;;2.97;1.55;;;21.80;67.20;;;;;;4973631;28;20484;-61
2022/04/05 10:21:22;;;;;;;5.25;2.08;;;21.80;63.90;;;;;;4972918;28;20520;-61
2022/04/05 10:23:48;;;;;;;4.30;1.77;;;20.70;62.60;;;;;;4973456;28;20503;-62
2022/04/05 10:26:20;;;;;;;5.53;1.90;;;20.50;64.00;;;;;;4973131;28;20045;-61
2022/04/05 10:28:47;;;;;;;4.28;1.75;;;21.40;65.70;;;;;;4973130;28;20031;-60
2022/04/05 10:31:29;;;;;;;2.90;2.22;;;22.20;63.80;;;;;;4974027;28;20011;-61
2022/04/05 10:34:16;;;;;;;5.38;2.78;;;21.90;63.00;;;;;;4972848;28;20113;-62
2022/04/05 10:37:05;;;;;;;4.43;1.98;;;22.10;63.60;;;;;;5067117;28;20391;-61
2022/04/05 10:39:31;;;;;;;5.43;2.40;;;21.50;62.60;;;;;;5055728;28;20056;-61
2022/04/05 10:42:09;;;;;;;2.50;1.83;;;21.00;63.40;;;;;;5051072;28;20497;-61
2022/04/05 10:44:36;;;;;;;4.05;2.00;;;21.30;64.00;;;;;;5049236;28;20052;-61
2022/04/05 10:47:04;;;;;;;3.22;2.20;;;22.30;62.60;;;;;;5047212;28;20063;-61
2022/04/05 10:49:42;;;;;;;3.85;2.00;;;22.60;63.40;;;;;;5052295;28;20029;-60
2022/04/05 10:52:21;;;;;;;2.88;1.80;;;23.00;63.50;;;;;;5050045;28;20021;-61
2022/04/05 10:55:12;;;;;;;4.53;1.83;;;22.70;59.90;;;;;;5050514;28;20045;-60
2022/04/05 10:57:39;;;;;;;2.75;1.80;;;21.40;62.80;;;;;;5050596;28;20056;-60
2022/04/05 11:00:28;;;;;;;5.80;2.20;;;21.30;61.20;;;;;;5050801;28;20028;-61
2022/04/05 11:02:53;;;;;;;4.32;1.70;;;21.40;63.10;;;;;;5050816;28;20067;-61
2022/04/05 11:05:19;;;;;;;4.05;1.80;;;22.20;59.80;;;;;;5046451;28;20049;-61
2022/04/05 11:07:54;;;;;;;5.47;2.28;;;20.20;63.60;;;;;;5050958;28;20045;-61
2022/04/05 11:10:20;;;;;;;3.53;1.50;;;21.10;60.50;;;;;;5050678;28;20025;-60
2022/04/05 11:12:46;;;;;;;3.22;1.92;;;18.10;64.70;;;;;;5050049;28;20049;-60
2022/04/05 11:15:15;;;;;;;2.70;1.90;;;18.50;68.60;;;;;;5049350;28;20103;-60
2022/04/05 11:17:42;;;;;;;2.10;1.67;;;20.70;64.60;;;;;;5050954;28;20029;-60
2022/04/05 11:20:10;;;;;;;4.38;1.80;;;19.70;63.30;;;;;;5046894;28;20030;-61
2022/04/05 11:22:38;;;;;;;2.58;1.80;;;18.70;65.50;;;;;;5052446;28;20083;-61
2022/04/05 11:25:13;;;;;;;2.72;1.60;;;19.60;65.30;;;;;;5050580;28;20040;-60
2022/04/05 11:27:46;;;;;;;4.82;1.70;;;20.10;64.70;;;;;;5050315;28;20033;-60
2022/04/05 11:30:25;;;;;;;5.90;1.67;;;20.20;66.00;;;;;;5050568;28;20025;-60
2022/04/05 11:33:09;;;;;;;2.83;1.75;;;20.60;63.20;;;;;;5050405;28;20033;-61
2022/04/05 11:35:57;;;;;;;3.78;1.80;;;18.90;65.60;;;;;;5049283;28;20041;-60
2022/04/05 11:38:23;;;;;;;3.33;1.70;;;18.90;67.80;;;;;;5034066;28;20029;-61
2022/04/05 11:40:51;;;;;;;3.13;1.70;;;19.60;64.90;;;;;;5049200;28;20565;-60
2022/04/05 11:43:24;;;;;;;4.05;1.88;;;19.60;63.50;;;;;;5051940;28;20029;-60
2022/04/05 11:45:52;;;;;;;4.50;1.83;;;19.10;65.20;;;;;;5048857;28;20116;-60
2022/04/05 11:48:23;;;;;;;4.20;1.88;;;18.50;64.00;;;;;;5034938;28;20065;-60
2022/04/05 11:50:50;;;;;;;5.82;2.00;;;18.00;68.00;;;;;;5036831;28;20037;-61
2022/04/05 11:53:24;;;;;;;4.40;2.15;;;19.20;67.70;;;;;;5033122;28;20100;-60
2022/04/05 11:56:23;;;;;;;3.38;2.00;;;19.00;69.60;;;;;;5034881;28;20060;-61
2022/04/05 11:58:56;;;;;;;4.20;2.15;;;18.80;67.30;;;;;;4989502;28;20495;-60
2022/04/05 12:01:24;;;;;;;4.93;2.20;;;18.20;69.50;;;;;;4990776;28;20480;-60
2022/04/05 12:03:55;;;;;;;2.75;1.83;;;18.70;70.50;;;;;;4990565;28;20031;-60
2022/04/05 12:06:26;;;;;;;3.45;1.92;;;19.70;68.80;;;;;;4991286;28;20037;-61
2022/04/05 12:08:54;;;;;;;4.82;1.90;;;19.80;69.40;;;;;;4990804;28;20042;-60
2022/04/05 12:11:21;;;;;;;3.15;1.75;;;20.10;69.70;;;;;;4990489;28;20027;-60
2022/04/05 12:14:00;;;;;;;2.60;1.80;;;19.60;69.30;;;;;;4991556;28;20150;-60
2022/04/05 12:16:43;;;;;;;6.03;1.73;;;19.50;69.00;;;;;;4992272;28;20474;-60
2022/04/05 12:19:09;;;;;;;4.72;1.80;;;19.90;67.70;;;;;;4989771;28;20439;-61
2022/04/05 12:21:35;;;;;;;5.00;1.77;;;18.40;70.30;;;;;;4990571;28;20038;-60
2022/04/05 12:24:00;;;;;;;8.27;2.33;;;19.00;70.20;;;;;;4988988;28;20037;-60
2022/04/05 12:26:31;;;;;;;2.42;1.90;;;19.50;69.00;;;;;;4988558;28;20031;-60
2022/04/05 12:28:59;;;;;;;3.05;2.03;;;19.50;69.40;;;;;;4990501;28;20038;-60
2022/04/05 12:31:28;;;;;;;3.78;2.20;;;19.30;70.70;;;;;;4992004;28;20028;-61
2022/04/05 12:34:05;;;;;;;5.53;2.20;;;19.50;67.10;;;;;;4996831;28;20041;-60
2022/04/05 12:36:53;;;;;;;3.10;1.95;;;19.90;69.00;;;;;;5031405;28;20056;-60
2022/04/05 12:39:26;;;;;;;4.05;2.00;;;20.10;68.90;;;;;;5035921;28;20028;-61
2022/04/05 12:42:00;;;;;;;5.80;1.83;;;19.70;68.20;;;;;;5035893;28;20033;-61
2022/04/05 12:44:37;;;;;;;3.17;1.70;;;19.10;70.40;;;;;;5033635;28;20445;-61
2022/04/05 12:47:11;;;;;;;2.80;1.60;;;19.50;68.70;;;;;;5032233;28;20128;-60